Time;durP1;ratioP1;P1;durP2;ratioP2;P2;SDS_P1;SDS_P2;PMS_P1;PMS_P2;Temp;Humidity;BMP_temperature;BMP_pressure;BME280_temperature;BME280_humidity;BME280_pressure;Samples;Min_cycle;Max_cycle;Signal;HPM_P1;HPM_P2
2021/10/07 00:00:47;;;;;;;6.43;3.80;;;11.50;99.90;;;;;;5033002;28;20538;-87
2021/10/07 00:03:13;;;;;;;9.27;3.78;;;11.50;99.90;;;;;;5000381;28;20033;-88
2021/10/07 00:05:39;;;;;;;12.77;3.17;;;11.50;99.90;;;;;;5017258;28;20060;-86
2021/10/07 00:08:05;;;;;;;11.75;3.40;;;11.50;99.90;;;;;;5033184;28;20091;-86
2021/10/07 00:10:32;;;;;;;11.52;3.45;;;11.40;99.90;;;;;;5017342;28;20033;-86
2021/10/07 00:12:58;;;;;;;11.38;3.28;;;11.40;99.90;;;;;;5033754;28;20124;-86
2021/10/07 00:15:23;;;;;;;6.32;3.70;;;11.40;99.90;;;;;;5035178;28;20053;-85
2021/10/07 00:17:49;;;;;;;14.75;3.65;;;11.40;99.90;;;;;;5001169;28;20040;-87
2021/10/07 00:20:16;;;;;;;12.75;3.80;;;11.40;99.90;;;;;;5017093;28;20025;-87
2021/10/07 00:22:43;;;;;;;11.23;3.40;;;11.40;99.90;;;;;;5033227;28;20112;-87
2021/10/07 00:25:13;;;;;;;5.78;3.40;;;11.40;99.90;;;;;;5000925;28;20032;-86
2021/10/07 00:27:42;;;;;;;6.00;3.77;;;11.30;99.90;;;;;;5016938;28;20394;-87
2021/10/07 00:30:14;;;;;;;4.47;3.63;;;11.40;99.90;;;;;;5033231;28;20031;-88
2021/10/07 00:32:48;;;;;;;4.97;4.00;;;11.40;99.90;;;;;;5032935;28;20014;-88
2021/10/07 00:40:09;;;;;;;8.85;4.47;;;11.40;99.90;;;;;;5033229;28;20371;-88
2021/10/07 00:42:35;;;;;;;5.10;4.15;;;11.40;99.90;;;;;;5034379;28;20061;-88
2021/10/07 00:45:01;;;;;;;5.65;4.32;;;11.40;99.90;;;;;;5032830;28;20462;-88
2021/10/07 00:47:27;;;;;;;8.95;4.47;;;11.40;99.90;;;;;;4999328;28;20064;-88
2021/10/07 00:49:53;;;;;;;6.95;4.40;;;11.40;99.90;;;;;;5033644;28;20057;-88
2021/10/07 00:52:19;;;;;;;9.57;4.45;;;11.50;99.90;;;;;;5017081;28;20032;-89
2021/10/07 00:54:47;;;;;;;7.20;5.10;;;11.50;99.90;;;;;;5033621;28;20437;-89
2021/10/07 00:57:18;;;;;;;9.18;4.32;;;11.50;99.90;;;;;;5032804;28;20045;-88
2021/10/07 00:59:47;;;;;;;6.65;4.78;;;11.50;99.90;;;;;;5033812;28;20085;-88
2021/10/07 01:02:15;;;;;;;6.70;5.07;;;11.50;99.90;;;;;;5033571;28;20087;-88
2021/10/07 01:04:47;;;;;;;10.10;5.45;;;11.50;99.90;;;;;;5028880;28;20026;-88
2021/10/07 01:07:16;;;;;;;6.80;4.93;;;11.50;99.90;;;;;;5009574;28;20025;-88
2021/10/07 01:09:42;;;;;;;8.02;5.20;;;11.60;99.90;;;;;;5033564;28;20040;-86
2021/10/07 01:12:08;;;;;;;12.65;5.50;;;11.50;99.90;;;;;;5032541;28;20013;-89
2021/10/07 01:15:01;;;;;;;7.78;5.40;;;11.50;99.90;;;;;;5038749;28;20034;-87
2021/10/07 01:17:30;;;;;;;12.50;5.63;;;11.60;99.90;;;;;;5021816;28;20053;-86
2021/10/07 01:19:58;;;;;;;6.70;5.13;;;11.60;99.90;;;;;;5018538;28;20022;-87
2021/10/07 01:22:25;;;;;;;7.55;5.70;;;11.60;99.90;;;;;;5041223;28;20025;-88
2021/10/07 01:24:52;;;;;;;6.93;5.30;;;11.60;99.90;;;;;;5040048;28;20029;-88
2021/10/07 01:27:20;;;;;;;10.50;5.25;;;11.60;99.90;;;;;;5057000;28;20025;-88
2021/10/07 01:29:52;;;;;;;7.68;5.50;;;11.70;99.90;;;;;;5070338;28;20010;-89
2021/10/07 01:32:17;;;;;;;6.95;5.13;;;11.70;99.90;;;;;;5042975;28;20040;-88
2021/10/07 01:34:43;;;;;;;7.15;5.30;;;11.70;99.90;;;;;;5056522;28;20018;-87
2021/10/07 01:37:09;;;;;;;8.10;5.75;;;11.70;99.90;;;;;;5054828;28;20155;-88
2021/10/07 01:39:34;;;;;;;9.85;5.72;;;11.70;99.90;;;;;;5018635;28;20068;-87
2021/10/07 01:42:00;;;;;;;12.23;6.53;;;11.70;99.90;;;;;;5039393;28;20492;-87
2021/10/07 01:44:28;;;;;;;9.98;6.28;;;11.70;99.90;;;;;;5033367;28;20087;-87
2021/10/07 01:46:53;;;;;;;8.05;6.25;;;11.80;99.90;;;;;;5049963;28;20036;-88
2021/10/07 01:49:20;;;;;;;9.02;6.20;;;11.80;99.90;;;;;;5000270;28;20018;-87
2021/10/07 01:51:48;;;;;;;9.18;6.70;;;11.70;99.90;;;;;;5033175;28;20022;-87
2021/10/07 01:54:14;;;;;;;8.80;6.47;;;11.80;99.90;;;;;;5016752;28;20466;-87
2021/10/07 01:56:40;;;;;;;10.00;6.32;;;11.80;99.90;;;;;;5032928;28;20060;-87
2021/10/07 01:59:05;;;;;;;9.70;6.65;;;11.80;99.90;;;;;;5036688;28;20475;-87
2021/10/07 02:01:33;;;;;;;8.25;6.13;;;11.80;99.90;;;;;;5053303;28;20029;-87
2021/10/07 02:04:00;;;;;;;11.38;6.95;;;11.80;99.90;;;;;;5019375;28;20072;-87
2021/10/07 02:06:25;;;;;;;8.15;6.35;;;11.80;99.90;;;;;;5023436;28;20026;-87
2021/10/07 02:08:51;;;;;;;9.35;6.38;;;11.80;99.90;;;;;;5020258;28;20132;-87
2021/10/07 02:11:16;;;;;;;11.13;6.50;;;11.80;99.90;;;;;;5035756;28;20374;-86
2021/10/07 02:13:42;;;;;;;8.48;6.22;;;11.80;99.90;;;;;;5020449;28;20028;-87
2021/10/07 02:16:08;;;;;;;12.02;6.60;;;11.80;99.90;;;;;;5020318;28;20108;-87
2021/10/07 02:18:33;;;;;;;7.75;5.78;;;11.90;99.90;;;;;;5052552;28;20116;-87
2021/10/07 02:21:00;;;;;;;7.43;5.97;;;11.90;99.90;;;;;;5003593;28;20050;-88
2021/10/07 02:23:29;;;;;;;9.00;5.93;;;11.90;99.90;;;;;;5019764;28;20458;-87
2021/10/07 02:25:54;;;;;;;8.32;5.72;;;11.90;99.90;;;;;;5004249;28;20051;-87
2021/10/07 02:28:20;;;;;;;6.68;5.38;;;11.90;99.90;;;;;;5052598;28;20108;-87
2021/10/07 02:30:46;;;;;;;6.72;5.45;;;11.90;99.90;;;;;;5019917;28;20036;-87
2021/10/07 02:33:12;;;;;;;6.93;5.80;;;11.90;99.90;;;;;;5019884;28;20021;-87
2021/10/07 02:35:38;;;;;;;9.10;5.80;;;11.90;99.90;;;;;;5019431;28;20022;-88
2021/10/07 02:38:04;;;;;;;8.82;6.22;;;11.90;99.90;;;;;;5016693;28;20079;-87
2021/10/07 02:40:31;;;;;;;6.93;5.63;;;11.90;99.90;;;;;;5037418;28;20026;-87
2021/10/07 02:42:58;;;;;;;7.55;6.00;;;11.90;99.90;;;;;;5030225;28;20584;-87
2021/10/07 02:45:24;;;;;;;9.30;6.50;;;11.90;99.90;;;;;;5036677;28;20078;-87
2021/10/07 02:47:53;;;;;;;7.63;6.05;;;11.90;99.90;;;;;;5052568;28;20033;-87
2021/10/07 02:50:22;;;;;;;9.93;6.72;;;11.90;99.90;;;;;;5019552;28;20102;-88
2021/10/07 02:52:47;;;;;;;8.07;6.32;;;11.90;99.90;;;;;;5036347;28;20025;-86
2021/10/07 02:55:14;;;;;;;9.00;6.90;;;11.90;99.90;;;;;;5019244;28;20044;-87
2021/10/07 02:57:45;;;;;;;7.85;6.50;;;11.90;99.90;;;;;;5019123;28;20054;-87
2021/10/07 03:00:12;;;;;;;8.43;6.57;;;11.90;99.90;;;;;;5035777;28;20049;-87
2021/10/07 03:02:38;;;;;;;8.15;6.53;;;11.90;99.90;;;;;;5035220;28;20025;-87
2021/10/07 03:05:04;;;;;;;8.95;6.57;;;11.90;99.90;;;;;;5035415;28;20026;-87
2021/10/07 03:07:30;;;;;;;8.75;6.70;;;11.90;99.90;;;;;;5018724;28;20033;-88
2021/10/07 03:09:56;;;;;;;11.05;6.90;;;11.90;99.90;;;;;;5034659;28;20031;-87
2021/10/07 03:12:22;;;;;;;7.63;6.63;;;11.90;99.90;;;;;;5035621;28;20086;-87
2021/10/07 03:14:48;;;;;;;9.15;6.40;;;11.90;99.90;;;;;;5036121;28;20037;-87
2021/10/07 03:17:13;;;;;;;8.23;6.57;;;11.90;99.90;;;;;;5052515;28;20030;-88
2021/10/07 03:19:39;;;;;;;8.48;6.47;;;11.90;99.90;;;;;;5036487;28;20113;-88
2021/10/07 03:22:06;;;;;;;8.65;6.22;;;11.90;99.90;;;;;;5036485;28;20033;-88
2021/10/07 03:24:33;;;;;;;9.68;6.50;;;11.90;99.90;;;;;;5035188;28;20033;-87
2021/10/07 03:26:59;;;;;;;9.15;6.13;;;11.90;99.90;;;;;;5019386;28;20029;-87
2021/10/07 03:29:25;;;;;;;7.55;6.10;;;11.90;99.90;;;;;;5015024;28;20028;-87
2021/10/07 03:31:50;;;;;;;10.15;6.45;;;11.90;99.90;;;;;;5026375;28;20092;-87
2021/10/07 03:34:16;;;;;;;9.43;6.55;;;11.90;99.90;;;;;;5018617;28;20474;-87
2021/10/07 03:36:42;;;;;;;9.15;5.75;;;11.90;99.90;;;;;;5001984;28;20025;-87
2021/10/07 03:39:07;;;;;;;7.80;6.25;;;11.90;99.90;;;;;;5018292;28;20033;-87
2021/10/07 03:41:33;;;;;;;13.30;6.45;;;11.90;99.90;;;;;;5034551;28;20469;-86
2021/10/07 03:43:59;;;;;;;8.00;6.25;;;11.90;99.90;;;;;;5034854;28;20029;-87
2021/10/07 03:46:25;;;;;;;11.38;7.20;;;11.90;99.90;;;;;;5001617;28;20038;-88
2021/10/07 03:48:50;;;;;;;9.15;6.47;;;11.80;99.90;;;;;;5018346;28;20445;-87
2021/10/07 03:51:16;;;;;;;9.73;6.53;;;11.80;99.90;;;;;;5018285;28;20030;-87
2021/10/07 03:53:42;;;;;;;10.20;7.00;;;11.80;99.90;;;;;;5018279;28;20474;-87
2021/10/07 03:56:08;;;;;;;9.05;6.50;;;11.80;99.90;;;;;;5034701;28;20041;-87
2021/10/07 03:58:33;;;;;;;9.38;6.50;;;11.80;99.90;;;;;;5001208;28;20072;-87
2021/10/07 04:00:59;;;;;;;9.65;7.00;;;11.80;99.90;;;;;;5034537;28;20033;-87
2021/10/07 04:03:25;;;;;;;8.65;7.10;;;11.70;99.90;;;;;;5017380;28;20029;-87
2021/10/07 04:05:51;;;;;;;11.77;7.70;;;11.70;99.90;;;;;;5017537;28;20140;-87
2021/10/07 04:08:17;;;;;;;12.13;7.38;;;11.70;99.90;;;;;;5001648;28;20071;-87
2021/10/07 04:10:43;;;;;;;11.05;7.25;;;11.70;99.90;;;;;;5017962;28;20117;-87
2021/10/07 04:13:09;;;;;;;10.63;7.55;;;11.70;99.90;;;;;;5034543;28;20037;-87
2021/10/07 04:15:34;;;;;;;12.82;8.18;;;11.70;99.90;;;;;;5034553;28;20108;-87
2021/10/07 04:18:00;;;;;;;12.15;7.88;;;11.60;99.90;;;;;;5001509;28;20029;-87
2021/10/07 04:20:26;;;;;;;12.55;8.02;;;11.60;99.90;;;;;;5043992;28;20057;-87
2021/10/07 04:22:52;;;;;;;10.65;7.88;;;11.60;99.90;;;;;;5033235;28;20044;-87
2021/10/07 04:25:18;;;;;;;10.88;8.40;;;11.60;99.90;;;;;;5017874;28;20045;-87
2021/10/07 04:27:43;;;;;;;10.95;7.75;;;11.50;99.90;;;;;;5050310;28;20052;-87
2021/10/07 04:30:13;;;;;;;12.10;7.70;;;11.60;99.90;;;;;;5017422;28;20029;-88
2021/10/07 04:32:38;;;;;;;10.25;8.20;;;11.60;99.90;;;;;;5017791;28;20025;-86
2021/10/07 04:35:06;;;;;;;12.02;8.77;;;11.60;99.90;;;;;;5001745;28;20402;-86
2021/10/07 04:37:32;;;;;;;11.05;7.57;;;11.60;99.90;;;;;;5033644;28;20382;-87
2021/10/07 04:39:58;;;;;;;9.80;7.75;;;11.60;99.90;;;;;;5034191;28;20026;-86
2021/10/07 04:42:24;;;;;;;11.45;9.07;;;11.60;99.90;;;;;;5017506;28;20030;-87
2021/10/07 04:44:50;;;;;;;9.90;7.90;;;11.60;99.90;;;;;;5001294;28;20025;-87
2021/10/07 04:47:15;;;;;;;10.82;8.60;;;11.60;99.90;;;;;;5034091;28;20120;-86
2021/10/07 04:49:41;;;;;;;16.05;8.20;;;11.60;99.90;;;;;;5017662;28;20025;-87
2021/10/07 04:52:07;;;;;;;11.82;8.02;;;11.60;99.90;;;;;;5001231;28;20030;-88
2021/10/07 04:54:33;;;;;;;11.20;8.27;;;11.60;99.90;;;;;;5002043;28;20026;-87
2021/10/07 04:56:58;;;;;;;10.55;7.75;;;11.60;99.90;;;;;;5034319;28;20072;-86
2021/10/07 04:59:24;;;;;;;9.98;7.38;;;11.60;99.90;;;;;;5034512;28;20412;-86
2021/10/07 05:01:50;;;;;;;11.90;7.78;;;11.60;99.90;;;;;;5017597;28;20021;-87
2021/10/07 05:04:15;;;;;;;10.75;8.02;;;11.60;99.90;;;;;;5034779;28;20029;-87
2021/10/07 05:06:41;;;;;;;10.43;7.57;;;11.60;99.90;;;;;;5037085;28;20017;-88
2021/10/07 05:09:09;;;;;;;18.77;7.82;;;11.60;99.90;;;;;;5040603;28;20013;-88
2021/10/07 05:11:35;;;;;;;8.65;7.10;;;11.60;99.90;;;;;;5040116;28;20025;-89
2021/10/07 05:14:00;;;;;;;22.92;7.38;;;11.50;99.90;;;;;;5040648;28;20017;-87
2021/10/07 05:16:26;;;;;;;11.10;7.22;;;11.60;99.90;;;;;;5040387;28;20010;-87
2021/10/07 05:18:52;;;;;;;18.48;7.35;;;11.50;99.90;;;;;;5039317;28;20064;-89
2021/10/07 05:21:17;;;;;;;18.20;7.18;;;11.50;99.90;;;;;;5035205;28;20026;-87
2021/10/07 05:23:43;;;;;;;9.43;6.63;;;11.50;99.90;;;;;;5011417;28;20030;-87
2021/10/07 05:26:09;;;;;;;7.88;6.40;;;11.50;99.90;;;;;;5003432;28;20482;-88
2021/10/07 05:28:35;;;;;;;11.27;6.20;;;11.50;99.90;;;;;;5033474;28;20040;-88
2021/10/07 05:31:00;;;;;;;13.48;6.30;;;11.50;99.90;;;;;;5033357;28;20036;-87
2021/10/07 05:33:26;;;;;;;11.00;6.50;;;11.40;99.90;;;;;;5020030;28;20033;-87
2021/10/07 05:35:52;;;;;;;7.78;6.20;;;11.40;99.90;;;;;;5020766;28;20036;-86
2021/10/07 05:38:18;;;;;;;8.52;6.40;;;11.40;99.90;;;;;;5039794;28;20458;-93
2021/10/07 05:40:44;;;;;;;11.93;5.95;;;11.40;99.90;;;;;;5054868;28;20021;-95
2021/10/07 05:43:11;;;;;;;14.32;6.38;;;11.40;99.90;;;;;;5038694;28;20099;-94
2021/10/07 05:45:37;;;;;;;11.10;6.97;;;11.40;99.90;;;;;;5037478;28;20026;-89
2021/10/07 05:48:04;;;;;;;13.15;6.68;;;11.40;99.90;;;;;;5049212;28;20030;-87
2021/10/07 05:50:30;;;;;;;16.92;6.45;;;11.40;99.90;;;;;;5030080;28;20005;-88
2021/10/07 05:52:56;;;;;;;11.55;5.82;;;11.30;99.90;;;;;;5031441;28;20463;-88
2021/10/07 05:55:21;;;;;;;8.38;6.05;;;11.30;99.90;;;;;;5027901;28;20026;-87
2021/10/07 05:57:47;;;;;;;9.27;6.60;;;11.30;99.90;;;;;;5037367;28;20053;-87
2021/10/07 06:00:13;;;;;;;9.48;6.13;;;11.20;99.90;;;;;;5052484;28;20085;-88
2021/10/07 06:02:40;;;;;;;9.27;5.82;;;11.20;99.90;;;;;;5035806;28;20057;-88
2021/10/07 06:05:08;;;;;;;12.45;6.28;;;11.20;99.90;;;;;;5024907;28;20029;-87
2021/10/07 06:07:34;;;;;;;18.30;5.78;;;11.10;99.90;;;;;;5036905;28;20473;-87
2021/10/07 06:10:00;;;;;;;10.15;5.80;;;11.10;99.90;;;;;;5037735;28;20052;-87
2021/10/07 06:12:26;;;;;;;13.23;6.07;;;11.10;99.90;;;;;;5036127;28;20029;-87
2021/10/07 06:14:52;;;;;;;9.93;6.40;;;11.10;99.90;;;;;;5019800;28;20458;-87
2021/10/07 06:17:18;;;;;;;14.82;6.47;;;11.10;99.90;;;;;;5016733;28;20423;-88
2021/10/07 06:19:46;;;;;;;13.73;6.32;;;11.10;99.90;;;;;;5031368;28;20096;-87
2021/10/07 06:22:13;;;;;;;7.57;6.55;;;11.10;99.90;;;;;;5020436;28;20025;-87
2021/10/07 06:24:38;;;;;;;17.50;6.45;;;11.10;99.90;;;;;;5003550;28;20030;-87
2021/10/07 06:27:05;;;;;;;21.48;6.60;;;11.10;99.90;;;;;;5035844;28;20163;-87
2021/10/07 06:29:30;;;;;;;13.85;5.97;;;11.00;99.90;;;;;;5031821;28;20093;-88
2021/10/07 06:31:56;;;;;;;14.38;5.95;;;11.00;99.90;;;;;;5026835;28;20085;-87
2021/10/07 06:34:22;;;;;;;7.55;6.72;;;11.00;99.90;;;;;;5017161;28;20025;-88
2021/10/07 06:36:48;;;;;;;7.53;6.25;;;11.00;99.90;;;;;;4989597;28;20057;-88
2021/10/07 06:39:13;;;;;;;16.20;6.53;;;11.00;99.90;;;;;;5014879;28;20462;-88
2021/10/07 06:41:39;;;;;;;9.85;6.47;;;11.00;99.90;;;;;;5019746;28;20025;-87
2021/10/07 06:44:05;;;;;;;18.65;6.70;;;11.00;99.90;;;;;;5031767;28;20061;-87
2021/10/07 06:46:30;;;;;;;13.00;6.38;;;11.00;99.90;;;;;;5017812;28;20463;-87
2021/10/07 06:48:56;;;;;;;12.98;6.93;;;11.00;99.90;;;;;;5035475;28;20484;-88
2021/10/07 06:51:23;;;;;;;9.55;6.45;;;11.00;99.90;;;;;;5019126;28;20053;-87
2021/10/07 06:53:53;;;;;;;14.77;7.40;;;11.00;99.90;;;;;;5019553;28;20033;-87
2021/10/07 06:56:21;;;;;;;14.90;6.90;;;11.00;99.90;;;;;;5035456;28;20053;-88
2021/10/07 06:58:52;;;;;;;10.55;7.88;;;11.00;99.90;;;;;;5033764;28;20013;-88
2021/10/07 07:01:28;;;;;;;29.20;8.20;;;11.00;99.90;;;;;;5020565;28;20040;-88
2021/10/07 07:03:56;;;;;;;14.82;8.13;;;11.00;99.90;;;;;;5034923;28;20040;-87
2021/10/07 07:06:24;;;;;;;8.25;7.25;;;11.00;99.90;;;;;;5029484;28;20030;-88
2021/10/07 07:08:52;;;;;;;24.00;8.38;;;11.00;99.90;;;;;;5030332;28;20026;-87
2021/10/07 07:11:18;;;;;;;14.85;8.38;;;11.00;99.90;;;;;;5035168;28;20030;-87
2021/10/07 07:13:45;;;;;;;18.85;8.27;;;11.00;99.90;;;;;;5018611;28;20021;-87
2021/10/07 07:16:11;;;;;;;14.52;8.60;;;11.00;99.90;;;;;;5036348;28;20028;-87
2021/10/07 07:18:38;;;;;;;14.65;8.38;;;11.00;99.90;;;;;;5035581;28;20033;-87
2021/10/07 07:21:03;;;;;;;18.10;8.45;;;11.00;99.90;;;;;;5019105;28;20029;-87
2021/10/07 07:23:29;;;;;;;10.48;8.63;;;11.00;99.90;;;;;;5018907;28;20101;-87
2021/10/07 07:25:55;;;;;;;16.08;7.90;;;11.00;99.90;;;;;;5034206;28;20132;-88
2021/10/07 07:28:21;;;;;;;16.02;8.60;;;11.00;99.90;;;;;;5018501;28;20530;-87
2021/10/07 07:30:49;;;;;;;11.55;7.82;;;11.00;99.90;;;;;;5018281;28;20032;-87
2021/10/07 07:33:15;;;;;;;9.95;7.95;;;11.00;99.90;;;;;;5002811;28;20033;-87
2021/10/07 07:35:41;;;;;;;10.30;8.68;;;11.10;99.90;;;;;;5031745;28;20032;-88
2021/10/07 07:38:06;;;;;;;14.00;9.52;;;11.10;99.90;;;;;;5001367;28;20116;-88
2021/10/07 07:40:33;;;;;;;12.80;8.93;;;11.10;99.90;;;;;;5034918;28;20026;-87
2021/10/07 07:42:59;;;;;;;15.55;9.43;;;11.10;99.90;;;;;;5046790;28;20083;-87
2021/10/07 07:45:26;;;;;;;16.30;8.77;;;11.10;99.90;;;;;;5033801;28;20473;-87
2021/10/07 07:47:52;;;;;;;19.88;9.85;;;11.10;99.90;;;;;;5018005;28;20084;-87
2021/10/07 07:50:19;;;;;;;15.63;8.77;;;11.20;99.90;;;;;;5028376;28;20030;-87
2021/10/07 07:52:46;;;;;;;14.95;9.27;;;11.20;99.90;;;;;;5028960;28;20527;-87
2021/10/07 07:55:12;;;;;;;13.25;9.68;;;11.20;99.90;;;;;;5031443;28;20088;-87
2021/10/07 07:57:38;;;;;;;17.67;10.13;;;11.20;99.90;;;;;;5033634;28;20050;-87
2021/10/07 08:00:05;;;;;;;17.80;10.05;;;11.20;99.90;;;;;;5014883;28;20032;-88
2021/10/07 08:02:31;;;;;;;15.38;10.40;;;11.30;99.90;;;;;;5034081;28;20064;-87
2021/10/07 08:04:57;;;;;;;16.85;10.18;;;11.30;99.90;;;;;;5017778;28;20034;-87
2021/10/07 08:07:22;;;;;;;17.75;10.48;;;11.30;99.90;;;;;;5017868;28;20048;-88
2021/10/07 08:09:48;;;;;;;14.38;10.27;;;11.30;99.90;;;;;;5029284;28;20021;-87
2021/10/07 08:12:15;;;;;;;18.52;10.68;;;11.30;99.90;;;;;;5024990;28;20037;-87
2021/10/07 08:14:46;;;;;;;16.30;10.98;;;11.40;99.90;;;;;;5006785;28;20112;-87
2021/10/07 08:17:12;;;;;;;16.83;10.88;;;11.40;99.90;;;;;;5033880;28;20021;-87
2021/10/07 08:19:38;;;;;;;29.92;12.50;;;11.50;99.90;;;;;;5031808;28;20021;-87
2021/10/07 08:22:04;;;;;;;21.67;12.80;;;11.50;99.90;;;;;;5034489;28;20474;-87
2021/10/07 08:24:32;;;;;;;21.88;13.15;;;11.50;99.90;;;;;;5017776;28;20042;-88
2021/10/07 08:26:58;;;;;;;22.50;13.93;;;11.50;99.90;;;;;;5034063;28;20030;-88
2021/10/07 08:29:24;;;;;;;24.25;13.88;;;11.50;99.90;;;;;;5033875;28;20472;-87
2021/10/07 08:31:50;;;;;;;34.08;15.45;;;11.50;99.90;;;;;;5017357;28;20021;-87
2021/10/07 08:34:16;;;;;;;35.47;17.67;;;11.60;99.90;;;;;;5033443;28;20084;-86
2021/10/07 08:36:43;;;;;;;39.65;17.38;;;11.60;99.90;;;;;;5017168;28;20022;-87
2021/10/07 08:39:10;;;;;;;38.92;18.52;;;11.60;99.90;;;;;;5001135;28;20441;-87
2021/10/07 08:41:38;;;;;;;35.50;17.00;;;11.60;99.90;;;;;;5017580;28;20116;-87
2021/10/07 08:44:03;;;;;;;34.63;17.20;;;11.60;99.90;;;;;;5034177;28;20030;-88
2021/10/07 08:46:30;;;;;;;31.65;15.95;;;11.60;99.90;;;;;;5019903;28;20040;-87
2021/10/07 08:48:56;;;;;;;32.78;16.70;;;11.60;99.90;;;;;;5032715;28;20020;-89
2021/10/07 08:51:22;;;;;;;32.17;15.85;;;11.60;99.90;;;;;;5056908;28;20005;-87
2021/10/07 08:53:48;;;;;;;28.67;15.32;;;11.60;99.90;;;;;;5056617;28;20018;-89
2021/10/07 08:56:14;;;;;;;25.02;13.63;;;11.60;99.90;;;;;;5039813;28;20060;-89
2021/10/07 08:58:40;;;;;;;46.65;15.93;;;11.60;99.90;;;;;;5056882;28;20036;-88
2021/10/07 09:01:06;;;;;;;24.95;14.52;;;11.70;99.90;;;;;;5036792;28;20036;-89
2021/10/07 09:03:38;;;;;;;23.50;13.40;;;11.70;99.90;;;;;;5049146;28;20041;-90
2021/10/07 09:06:12;;;;;;;21.88;13.77;;;11.60;99.90;;;;;;5044389;28;20030;-89
2021/10/07 09:08:48;;;;;;;24.70;13.90;;;11.70;99.90;;;;;;5029230;28;20017;-89
2021/10/07 09:11:28;;;;;;;23.55;14.63;;;11.70;99.90;;;;;;5017489;28;20029;-88
2021/10/07 09:13:59;;;;;;;20.33;13.03;;;11.70;99.90;;;;;;5034589;28;20047;-88
2021/10/07 09:16:29;;;;;;;24.48;14.23;;;11.70;99.90;;;;;;5034135;28;20807;-88
2021/10/07 09:19:10;;;;;;;23.08;13.80;;;11.80;99.90;;;;;;5034178;28;20021;-89
2021/10/07 09:21:36;;;;;;;22.10;13.55;;;11.80;99.90;;;;;;5034256;28;20040;-89
2021/10/07 09:24:02;;;;;;;22.17;13.02;;;11.90;99.90;;;;;;5017592;28;20478;-90
2021/10/07 09:26:30;;;;;;;23.52;13.88;;;11.90;99.90;;;;;;5018190;28;20417;-89
2021/10/07 09:29:02;;;;;;;21.42;12.65;;;12.00;99.90;;;;;;5018286;28;20052;-89
2021/10/07 09:31:32;;;;;;;21.17;13.02;;;12.00;99.90;;;;;;5035067;28;20032;-89
2021/10/07 09:34:03;;;;;;;20.60;12.57;;;12.00;99.90;;;;;;5033407;28;20527;-89
2021/10/07 09:36:30;;;;;;;19.60;11.88;;;12.10;99.90;;;;;;5029776;28;20022;-88
2021/10/07 09:38:57;;;;;;;23.27;12.43;;;12.10;99.90;;;;;;5014449;28;20092;-89
2021/10/07 09:41:30;;;;;;;20.55;12.70;;;12.20;99.90;;;;;;5031431;28;20021;-89
2021/10/07 09:44:08;;;;;;;23.60;14.73;;;12.20;99.90;;;;;;5033761;28;20033;-89
2021/10/07 09:46:47;;;;;;;24.10;15.40;;;12.20;99.90;;;;;;5033656;28;20030;-88
2021/10/07 09:49:21;;;;;;;24.27;14.20;;;12.20;99.90;;;;;;5033417;28;20036;-88
2021/10/07 09:51:51;;;;;;;24.35;14.93;;;12.20;99.90;;;;;;5034034;28;20026;-89
2021/10/07 09:54:19;;;;;;;21.10;13.85;;;12.20;99.90;;;;;;5034360;28;20032;-89
2021/10/07 09:56:54;;;;;;;22.75;13.98;;;12.20;99.90;;;;;;5049787;28;20045;-88
2021/10/07 09:59:20;;;;;;;19.60;12.73;;;12.30;99.90;;;;;;5021531;28;20064;-88
2021/10/07 10:01:48;;;;;;;20.02;13.15;;;12.20;99.90;;;;;;5048272;28;20053;-89
2021/10/07 10:04:25;;;;;;;22.48;13.18;;;12.30;99.90;;;;;;5033265;28;20053;-88
2021/10/07 10:06:55;;;;;;;24.83;14.60;;;12.30;99.90;;;;;;5034911;28;20382;-89
2021/10/07 10:09:28;;;;;;;22.52;14.25;;;12.30;99.90;;;;;;5033842;28;20026;-88
2021/10/07 10:12:04;;;;;;;25.25;15.73;;;12.30;99.90;;;;;;5047454;28;20021;-94
2021/10/07 10:14:30;;;;;;;23.63;15.80;;;12.40;99.90;;;;;;5033326;28;20041;-95
2021/10/07 10:16:56;;;;;;;24.35;14.63;;;12.30;99.90;;;;;;5037137;28;20422;-93
2021/10/07 10:19:24;;;;;;;21.70;14.30;;;12.40;99.90;;;;;;5033796;28;20064;-92
2021/10/07 10:21:55;;;;;;;21.65;13.82;;;12.40;99.90;;;;;;5029150;28;20022;-88
2021/10/07 10:24:21;;;;;;;25.23;15.63;;;12.40;99.90;;;;;;5036079;28;20064;-90
2021/10/07 10:27:00;;;;;;;23.92;15.25;;;12.40;99.90;;;;;;5036820;28;20021;-89
2021/10/07 10:29:34;;;;;;;22.45;14.45;;;12.40;99.90;;;;;;5036600;28;20116;-89
2021/10/07 10:32:05;;;;;;;23.63;15.23;;;12.40;99.90;;;;;;5014377;28;20049;-88
2021/10/07 10:34:44;;;;;;;30.35;17.85;;;12.40;99.90;;;;;;5029490;28;20030;-89
2021/10/07 10:37:12;;;;;;;28.80;17.52;;;12.50;99.90;;;;;;5036452;28;20029;-89
2021/10/07 10:39:47;;;;;;;31.27;19.77;;;12.50;99.90;;;;;;5036418;28;20033;-89
2021/10/07 10:42:26;;;;;;;30.58;17.63;;;12.50;99.90;;;;;;5019342;28;20022;-84
2021/10/07 10:45:02;;;;;;;25.65;17.38;;;12.50;99.90;;;;;;5035967;28;20017;-89
2021/10/07 10:47:31;;;;;;;23.02;15.07;;;12.50;99.90;;;;;;5035473;28;20097;-88
2021/10/07 10:49:58;;;;;;;20.67;14.23;;;12.50;99.90;;;;;;5019868;28;20180;-89
2021/10/07 10:52:35;;;;;;;21.30;13.88;;;12.60;99.90;;;;;;5035391;28;20109;-89
2021/10/07 10:55:08;;;;;;;21.30;13.65;;;12.60;99.90;;;;;;5035789;28;20026;-89
2021/10/07 10:57:48;;;;;;;28.15;17.65;;;12.70;99.90;;;;;;5035405;28;20045;-89
2021/10/07 11:00:30;;;;;;;25.70;16.85;;;12.70;99.90;;;;;;5030331;28;20025;-88
2021/10/07 11:03:08;;;;;;;23.02;15.93;;;12.70;99.90;;;;;;5029375;28;20060;-88
2021/10/07 11:05:41;;;;;;;25.92;17.30;;;12.70;99.90;;;;;;5051820;28;20061;-88
2021/10/07 11:08:19;;;;;;;27.30;17.17;;;12.70;99.90;;;;;;5035106;28;20030;-90
2021/10/07 11:10:49;;;;;;;26.90;17.05;;;12.70;99.90;;;;;;5034108;28;20091;-88
2021/10/07 11:13:27;;;;;;;25.13;17.30;;;12.70;99.90;;;;;;5041573;28;20025;-89
2021/10/07 11:15:58;;;;;;;26.15;16.77;;;12.70;99.90;;;;;;5038132;28;20096;-88
2021/10/07 11:18:28;;;;;;;;;;;12.70;99.90;;;;;;5019950;28;20064;-88
2021/10/07 11:21:12;;;;;;;26.15;17.58;;;12.70;99.90;;;;;;5035049;28;19967;-88
2021/10/07 11:23:39;;;;;;;26.65;17.77;;;12.70;99.90;;;;;;5034358;28;20056;-88
2021/10/07 11:26:05;;;;;;;28.80;18.75;;;12.70;99.90;;;;;;5035165;28;20120;-88
2021/10/07 11:28:32;;;;;;;22.40;15.85;;;12.70;99.90;;;;;;5015866;28;20025;-88
2021/10/07 11:31:22;;;;;;;23.52;15.88;;;12.70;99.90;;;;;;5032562;28;20022;-89
2021/10/07 11:33:51;;;;;;;24.50;15.40;;;12.80;99.90;;;;;;5015502;28;20056;-89
2021/10/07 11:36:23;;;;;;;23.60;14.43;;;12.80;99.90;;;;;;5051572;28;20090;-88
2021/10/07 11:38:53;;;;;;;24.17;14.77;;;12.80;99.90;;;;;;5036240;28;20036;-93
2021/10/07 11:41:22;;;;;;;27.45;17.85;;;12.90;99.90;;;;;;5034586;28;20014;-89
2021/10/07 11:43:48;;;;;;;29.67;19.10;;;12.90;99.90;;;;;;5051994;28;20355;-89
2021/10/07 11:46:16;;;;;;;31.23;18.70;;;12.90;99.90;;;;;;5023796;28;20091;-89
2021/10/07 11:48:54;;;;;;;28.23;17.63;;;12.90;99.90;;;;;;5035247;28;20104;-88
2021/10/07 11:51:29;;;;;;;24.95;16.10;;;13.00;99.90;;;;;;5022990;28;20028;-89
2021/10/07 11:54:02;;;;;;;27.17;17.73;;;13.00;99.90;;;;;;5027344;28;20508;-89
2021/10/07 11:56:28;;;;;;;24.38;15.95;;;13.00;99.90;;;;;;5035442;28;20137;-89
2021/10/07 11:59:00;;;;;;;23.20;15.90;;;13.00;99.90;;;;;;5018449;28;20075;-89
2021/10/07 12:01:34;;;;;;;23.20;14.27;;;13.00;99.90;;;;;;5022582;28;20037;-88
2021/10/07 12:04:02;;;;;;;22.95;14.90;;;13.10;99.90;;;;;;5036206;28;20439;-89
2021/10/07 12:06:32;;;;;;;20.85;13.65;;;13.10;99.90;;;;;;5020710;28;20065;-89
2021/10/07 12:08:58;;;;;;;21.90;13.50;;;13.10;99.90;;;;;;4999663;28;20018;-89
2021/10/07 12:11:26;;;;;;;18.00;12.38;;;13.20;99.90;;;;;;5047502;28;20029;-89
2021/10/07 12:14:00;;;;;;;20.60;13.95;;;13.20;99.90;;;;;;5036713;28;20466;-92
2021/10/07 12:16:28;;;;;;;25.98;16.30;;;13.30;99.90;;;;;;5018162;28;20025;-93
2021/10/07 12:19:01;;;;;;;23.88;15.57;;;13.30;99.90;;;;;;5033444;28;20034;-91
2021/10/07 12:21:32;;;;;;;25.25;16.58;;;13.40;99.90;;;;;;5023145;28;20386;-88
2021/10/07 12:24:09;;;;;;;21.75;14.95;;;13.40;99.90;;;;;;5032108;28;20052;-90
2021/10/07 12:26:41;;;;;;;21.45;14.90;;;13.40;99.90;;;;;;5025611;28;20267;-90
2021/10/07 12:29:13;;;;;;;22.65;14.27;;;13.50;99.90;;;;;;5031911;28;20029;-88
2021/10/07 12:32:01;;;;;;;24.05;16.38;;;13.50;99.90;;;;;;5045126;28;20010;-89
2021/10/07 12:34:29;;;;;;;20.15;14.20;;;13.60;99.90;;;;;;5054974;28;20029;-89
2021/10/07 12:36:57;;;;;;;22.20;14.52;;;13.60;99.90;;;;;;5058110;28;20017;-89
2021/10/07 12:39:31;;;;;;;19.63;13.77;;;13.70;99.90;;;;;;5024966;28;20005;-90
2021/10/07 12:42:05;;;;;;;22.55;14.07;;;13.70;99.90;;;;;;5056962;28;20013;-89
2021/10/07 12:44:33;;;;;;;22.85;14.93;;;13.80;99.90;;;;;;5057145;28;20053;-90